sensor_id;sensor_type;location;lat;lon;timestamp;P1;durP1;ratioP1;P2;durP2;ratioP2
57303;SDS011;43150;50.986;18.208;2023-06-04T00:00:37;4.20;;;1.90;;
57303;SDS011;43150;50.986;18.208;2023-06-04T00:03:03;4.00;;;2.30;;
57303;SDS011;43150;50.986;18.208;2023-06-04T00:05:29;6.60;;;2.20;;
57303;SDS011;43150;50.986;18.208;2023-06-04T00:07:55;4.00;;;2.10;;
57303;SDS011;43150;50.986;18.208;2023-06-04T00:10:20;3.20;;;2.10;;
57303;SDS011;43150;50.986;18.208;2023-06-04T00:12:46;3.80;;;2.00;;
57303;SDS011;43150;50.986;18.208;2023-06-04T00:15:14;4.50;;;2.40;;
57303;SDS011;43150;50.986;18.208;2023-06-04T00:17:45;3.80;;;2.00;;
57303;SDS011;43150;50.986;18.208;2023-06-04T00:20:11;6.20;;;4.30;;
57303;SDS011;43150;50.986;18.208;2023-06-04T00:22:37;7.00;;;2.80;;
57303;SDS011;43150;50.986;18.208;2023-06-04T00:25:03;4.10;;;2.30;;
57303;SDS011;43150;50.986;18.208;2023-06-04T00:27:29;5.10;;;1.90;;
57303;SDS011;43150;50.986;18.208;2023-06-04T00:29:54;4.60;;;2.10;;
57303;SDS011;43150;50.986;18.208;2023-06-04T00:32:20;3.00;;;1.50;;
57303;SDS011;43150;50.986;18.208;2023-06-04T00:34:50;4.30;;;2.10;;
57303;SDS011;43150;50.986;18.208;2023-06-04T00:37:15;4.60;;;2.40;;
57303;SDS011;43150;50.986;18.208;2023-06-04T00:39:41;5.70;;;2.40;;
57303;SDS011;43150;50.986;18.208;2023-06-04T00:42:07;3.40;;;2.00;;
57303;SDS011;43150;50.986;18.208;2023-06-04T00:44:32;8.90;;;2.40;;
57303;SDS011;43150;50.986;18.208;2023-06-04T00:46:59;4.80;;;2.10;;
57303;SDS011;43150;50.986;18.208;2023-06-04T00:49:25;6.40;;;2.30;;
57303;SDS011;43150;50.986;18.208;2023-06-04T00:51:52;3.50;;;2.10;;
57303;SDS011;43150;50.986;18.208;2023-06-04T00:54:17;6.20;;;2.30;;
57303;SDS011;43150;50.986;18.208;2023-06-04T00:56:44;6.00;;;2.10;;
57303;SDS011;43150;50.986;18.208;2023-06-04T00:59:10;3.90;;;2.00;;
57303;SDS011;43150;50.986;18.208;2023-06-04T01:04:31;6.90;;;2.20;;
57303;SDS011;43150;50.986;18.208;2023-06-04T01:06:58;4.80;;;2.50;;
57303;SDS011;43150;50.986;18.208;2023-06-04T01:09:27;4.90;;;1.90;;
57303;SDS011;43150;50.986;18.208;2023-06-04T01:11:54;5.60;;;2.20;;
57303;SDS011;43150;50.986;18.208;2023-06-04T01:14:23;3.70;;;1.90;;
57303;SDS011;43150;50.986;18.208;2023-06-04T01:22:15;4.80;;;1.90;;
57303;SDS011;43150;50.986;18.208;2023-06-04T01:24:48;4.80;;;2.40;;
57303;SDS011;43150;50.986;18.208;2023-06-04T01:27:18;7.10;;;2.80;;
57303;SDS011;43150;50.986;18.208;2023-06-04T01:29:45;4.50;;;1.90;;
57303;SDS011;43150;50.986;18.208;2023-06-04T01:32:10;5.20;;;2.30;;
57303;SDS011;43150;50.986;18.208;2023-06-04T01:34:45;4.30;;;2.70;;
57303;SDS011;43150;50.986;18.208;2023-06-04T01:37:11;7.50;;;2.60;;
57303;SDS011;43150;50.986;18.208;2023-06-04T01:39:41;5.50;;;2.20;;
57303;SDS011;43150;50.986;18.208;2023-06-04T01:42:08;4.80;;;2.30;;
57303;SDS011;43150;50.986;18.208;2023-06-04T01:44:33;4.80;;;2.10;;
57303;SDS011;43150;50.986;18.208;2023-06-04T01:46:59;6.10;;;2.10;;
57303;SDS011;43150;50.986;18.208;2023-06-04T01:49:25;4.20;;;2.30;;
57303;SDS011;43150;50.986;18.208;2023-06-04T01:51:51;4.30;;;2.00;;
57303;SDS011;43150;50.986;18.208;2023-06-04T01:54:16;5.40;;;2.30;;
57303;SDS011;43150;50.986;18.208;2023-06-04T01:56:43;5.00;;;2.40;;
57303;SDS011;43150;50.986;18.208;2023-06-04T01:59:09;4.20;;;2.20;;
57303;SDS011;43150;50.986;18.208;2023-06-04T02:01:37;5.20;;;2.10;;
57303;SDS011;43150;50.986;18.208;2023-06-04T02:04:03;5.40;;;2.40;;
57303;SDS011;43150;50.986;18.208;2023-06-04T02:06:31;5.90;;;2.50;;
57303;SDS011;43150;50.986;18.208;2023-06-04T02:08:57;5.30;;;2.20;;
57303;SDS011;43150;50.986;18.208;2023-06-04T02:11:23;4.60;;;2.00;;
57303;SDS011;43150;50.986;18.208;2023-06-04T02:13:49;5.40;;;1.90;;
57303;SDS011;43150;50.986;18.208;2023-06-04T02:16:15;6.70;;;2.10;;
57303;SDS011;43150;50.986;18.208;2023-06-04T02:18:40;5.20;;;1.90;;
57303;SDS011;43150;50.986;18.208;2023-06-04T02:21:06;3.60;;;1.90;;
57303;SDS011;43150;50.986;18.208;2023-06-04T02:23:32;3.70;;;2.20;;
57303;SDS011;43150;50.986;18.208;2023-06-04T02:25:58;6.50;;;2.70;;
57303;SDS011;43150;50.986;18.208;2023-06-04T02:28:23;4.10;;;1.90;;
57303;SDS011;43150;50.986;18.208;2023-06-04T02:30:50;4.50;;;2.30;;
57303;SDS011;43150;50.986;18.208;2023-06-04T02:33:15;6.40;;;1.90;;
57303;SDS011;43150;50.986;18.208;2023-06-04T02:35:41;7.50;;;2.60;;
57303;SDS011;43150;50.986;18.208;2023-06-04T02:38:06;3.80;;;2.00;;
57303;SDS011;43150;50.986;18.208;2023-06-04T02:40:32;3.30;;;1.60;;
57303;SDS011;43150;50.986;18.208;2023-06-04T02:42:58;5.60;;;2.20;;
57303;SDS011;43150;50.986;18.208;2023-06-04T02:45:24;4.20;;;2.60;;
57303;SDS011;43150;50.986;18.208;2023-06-04T02:47:50;5.50;;;1.90;;
57303;SDS011;43150;50.986;18.208;2023-06-04T02:50:16;3.90;;;1.80;;
57303;SDS011;43150;50.986;18.208;2023-06-04T02:52:41;5.90;;;2.20;;
57303;SDS011;43150;50.986;18.208;2023-06-04T02:55:08;6.10;;;2.50;;
57303;SDS011;43150;50.986;18.208;2023-06-04T02:57:34;3.60;;;1.80;;
57303;SDS011;43150;50.986;18.208;2023-06-04T03:00:04;4.20;;;1.70;;
57303;SDS011;43150;50.986;18.208;2023-06-04T03:02:46;5.30;;;2.00;;
57303;SDS011;43150;50.986;18.208;2023-06-04T03:05:13;3.30;;;1.90;;
57303;SDS011;43150;50.986;18.208;2023-06-04T03:07:40;5.40;;;2.60;;
57303;SDS011;43150;50.986;18.208;2023-06-04T03:10:07;5.20;;;2.20;;
57303;SDS011;43150;50.986;18.208;2023-06-04T03:12:34;4.10;;;2.00;;
57303;SDS011;43150;50.986;18.208;2023-06-04T03:14:59;5.80;;;2.10;;
57303;SDS011;43150;50.986;18.208;2023-06-04T03:17:26;3.60;;;2.10;;
57303;SDS011;43150;50.986;18.208;2023-06-04T03:19:52;5.50;;;2.40;;
57303;SDS011;43150;50.986;18.208;2023-06-04T03:22:18;4.60;;;2.30;;
57303;SDS011;43150;50.986;18.208;2023-06-04T03:24:43;5.00;;;2.50;;
57303;SDS011;43150;50.986;18.208;2023-06-04T03:27:09;3.90;;;1.90;;
57303;SDS011;43150;50.986;18.208;2023-06-04T03:29:36;7.60;;;2.70;;
57303;SDS011;43150;50.986;18.208;2023-06-04T03:32:02;4.80;;;2.40;;
57303;SDS011;43150;50.986;18.208;2023-06-04T03:34:28;5.90;;;2.50;;
57303;SDS011;43150;50.986;18.208;2023-06-04T03:36:56;5.90;;;2.80;;
57303;SDS011;43150;50.986;18.208;2023-06-04T03:39:23;8.50;;;2.40;;
57303;SDS011;43150;50.986;18.208;2023-06-04T03:41:49;6.70;;;2.50;;
57303;SDS011;43150;50.986;18.208;2023-06-04T03:44:15;3.20;;;2.20;;
57303;SDS011;43150;50.986;18.208;2023-06-04T03:46:41;5.40;;;3.00;;
57303;SDS011;43150;50.986;18.208;2023-06-04T03:49:08;9.80;;;3.20;;
57303;SDS011;43150;50.986;18.208;2023-06-04T03:51:34;5.10;;;2.40;;
57303;SDS011;43150;50.986;18.208;2023-06-04T03:54:05;6.40;;;4.20;;
57303;SDS011;43150;50.986;18.208;2023-06-04T03:56:31;5.70;;;3.50;;
57303;SDS011;43150;50.986;18.208;2023-06-04T03:58:57;8.00;;;3.70;;
57303;SDS011;43150;50.986;18.208;2023-06-04T04:01:24;6.50;;;3.50;;
57303;SDS011;43150;50.986;18.208;2023-06-04T04:03:50;5.40;;;3.00;;
57303;SDS011;43150;50.986;18.208;2023-06-04T04:06:16;5.00;;;3.30;;
57303;SDS011;43150;50.986;18.208;2023-06-04T04:08:42;4.50;;;2.80;;
57303;SDS011;43150;50.986;18.208;2023-06-04T04:11:12;4.40;;;3.10;;
57303;SDS011;43150;50.986;18.208;2023-06-04T04:13:38;4.50;;;2.60;;
57303;SDS011;43150;50.986;18.208;2023-06-04T04:16:04;4.90;;;2.90;;
57303;SDS011;43150;50.986;18.208;2023-06-04T04:18:33;4.90;;;2.90;;
57303;SDS011;43150;50.986;18.208;2023-06-04T04:21:00;4.20;;;2.80;;
57303;SDS011;43150;50.986;18.208;2023-06-04T04:23:26;5.20;;;3.10;;
57303;SDS011;43150;50.986;18.208;2023-06-04T04:25:53;3.70;;;2.70;;
57303;SDS011;43150;50.986;18.208;2023-06-04T04:28:19;3.70;;;2.60;;
57303;SDS011;43150;50.986;18.208;2023-06-04T04:30:48;5.30;;;2.60;;
57303;SDS011;43150;50.986;18.208;2023-06-04T04:33:14;4.10;;;2.30;;
57303;SDS011;43150;50.986;18.208;2023-06-04T04:35:42;3.80;;;2.30;;
57303;SDS011;43150;50.986;18.208;2023-06-04T04:38:09;3.00;;;2.30;;
57303;SDS011;43150;50.986;18.208;2023-06-04T04:40:36;3.90;;;2.40;;
57303;SDS011;43150;50.986;18.208;2023-06-04T04:43:02;6.40;;;2.80;;
57303;SDS011;43150;50.986;18.208;2023-06-04T04:45:27;3.40;;;2.10;;
57303;SDS011;43150;50.986;18.208;2023-06-04T04:47:53;3.30;;;2.20;;
57303;SDS011;43150;50.986;18.208;2023-06-04T04:50:19;2.70;;;2.00;;
57303;SDS011;43150;50.986;18.208;2023-06-04T04:52:44;5.60;;;2.20;;
57303;SDS011;43150;50.986;18.208;2023-06-04T04:55:10;4.50;;;2.30;;
57303;SDS011;43150;50.986;18.208;2023-06-04T04:57:38;5.30;;;2.10;;
57303;SDS011;43150;50.986;18.208;2023-06-04T05:00:03;3.40;;;2.50;;
57303;SDS011;43150;50.986;18.208;2023-06-04T05:02:34;4.20;;;2.30;;
57303;SDS011;43150;50.986;18.208;2023-06-04T05:05:01;3.50;;;2.40;;
57303;SDS011;43150;50.986;18.208;2023-06-04T05:07:27;7.80;;;3.10;;
57303;SDS011;43150;50.986;18.208;2023-06-04T05:09:52;7.10;;;2.50;;
57303;SDS011;43150;50.986;18.208;2023-06-04T05:12:19;3.90;;;2.50;;
57303;SDS011;43150;50.986;18.208;2023-06-04T05:14:44;5.70;;;2.10;;
57303;SDS011;43150;50.986;18.208;2023-06-04T05:17:11;4.00;;;2.10;;
57303;SDS011;43150;50.986;18.208;2023-06-04T05:19:38;2.80;;;1.90;;
57303;SDS011;43150;50.986;18.208;2023-06-04T05:22:04;3.90;;;2.30;;
57303;SDS011;43150;50.986;18.208;2023-06-04T05:24:31;4.00;;;2.20;;
57303;SDS011;43150;50.986;18.208;2023-06-04T05:26:58;5.30;;;2.50;;
57303;SDS011;43150;50.986;18.208;2023-06-04T05:29:24;5.40;;;2.60;;
57303;SDS011;43150;50.986;18.208;2023-06-04T05:31:50;5.80;;;2.60;;
57303;SDS011;43150;50.986;18.208;2023-06-04T05:34:16;4.60;;;2.40;;
57303;SDS011;43150;50.986;18.208;2023-06-04T05:36:42;5.80;;;2.90;;
57303;SDS011;43150;50.986;18.208;2023-06-04T05:39:18;4.50;;;2.70;;
57303;SDS011;43150;50.986;18.208;2023-06-04T05:41:44;4.10;;;2.30;;
57303;SDS011;43150;50.986;18.208;2023-06-04T05:44:11;3.60;;;2.30;;
57303;SDS011;43150;50.986;18.208;2023-06-04T05:46:37;4.40;;;2.40;;
57303;SDS011;43150;50.986;18.208;2023-06-04T05:49:02;4.50;;;2.80;;
57303;SDS011;43150;50.986;18.208;2023-06-04T05:51:28;3.40;;;2.60;;
57303;SDS011;43150;50.986;18.208;2023-06-04T05:53:54;4.10;;;2.30;;
57303;SDS011;43150;50.986;18.208;2023-06-04T05:56:23;5.20;;;2.70;;
57303;SDS011;43150;50.986;18.208;2023-06-04T05:58:52;4.90;;;2.50;;
57303;SDS011;43150;50.986;18.208;2023-06-04T06:01:18;4.40;;;2.50;;
57303;SDS011;43150;50.986;18.208;2023-06-04T06:03:44;4.10;;;2.80;;
57303;SDS011;43150;50.986;18.208;2023-06-04T06:06:10;3.60;;;2.50;;
57303;SDS011;43150;50.986;18.208;2023-06-04T06:08:39;3.30;;;1.90;;
57303;SDS011;43150;50.986;18.208;2023-06-04T06:11:05;3.40;;;2.20;;
57303;SDS011;43150;50.986;18.208;2023-06-04T06:13:32;3.60;;;2.10;;
57303;SDS011;43150;50.986;18.208;2023-06-04T06:15:58;3.40;;;1.80;;
57303;SDS011;43150;50.986;18.208;2023-06-04T06:18:25;3.10;;;1.80;;
57303;SDS011;43150;50.986;18.208;2023-06-04T06:20:51;3.60;;;1.70;;
57303;SDS011;43150;50.986;18.208;2023-06-04T06:23:16;5.60;;;1.80;;
57303;SDS011;43150;50.986;18.208;2023-06-04T06:25:44;2.40;;;1.80;;
57303;SDS011;43150;50.986;18.208;2023-06-04T06:28:11;4.90;;;2.10;;
57303;SDS011;43150;50.986;18.208;2023-06-04T06:30:37;5.70;;;2.20;;
57303;SDS011;43150;50.986;18.208;2023-06-04T06:33:03;4.30;;;2.40;;
57303;SDS011;43150;50.986;18.208;2023-06-04T06:35:29;2.90;;;1.80;;
57303;SDS011;43150;50.986;18.208;2023-06-04T06:37:55;4.40;;;1.80;;
57303;SDS011;43150;50.986;18.208;2023-06-04T06:40:20;4.20;;;1.80;;
57303;SDS011;43150;50.986;18.208;2023-06-04T06:42:49;3.00;;;1.80;;
57303;SDS011;43150;50.986;18.208;2023-06-04T06:45:17;3.80;;;1.60;;
57303;SDS011;43150;50.986;18.208;2023-06-04T06:47:43;3.70;;;2.00;;
57303;SDS011;43150;50.986;18.208;2023-06-04T06:50:09;2.70;;;1.60;;
57303;SDS011;43150;50.986;18.208;2023-06-04T06:52:37;4.20;;;1.60;;
57303;SDS011;43150;50.986;18.208;2023-06-04T06:55:03;3.50;;;1.60;;
57303;SDS011;43150;50.986;18.208;2023-06-04T06:57:29;4.10;;;1.80;;
57303;SDS011;43150;50.986;18.208;2023-06-04T06:59:55;5.10;;;1.90;;
57303;SDS011;43150;50.986;18.208;2023-06-04T07:02:28;3.50;;;2.00;;
57303;SDS011;43150;50.986;18.208;2023-06-04T07:04:54;6.60;;;1.90;;
57303;SDS011;43150;50.986;18.208;2023-06-04T07:07:20;2.90;;;1.40;;
57303;SDS011;43150;50.986;18.208;2023-06-04T07:09:46;3.00;;;1.40;;
57303;SDS011;43150;50.986;18.208;2023-06-04T07:12:12;3.60;;;1.40;;
57303;SDS011;43150;50.986;18.208;2023-06-04T07:14:38;3.50;;;1.60;;
57303;SDS011;43150;50.986;18.208;2023-06-04T07:17:03;4.60;;;1.90;;
57303;SDS011;43150;50.986;18.208;2023-06-04T07:19:29;2.30;;;1.60;;
57303;SDS011;43150;50.986;18.208;2023-06-04T07:21:55;2.70;;;1.50;;
57303;SDS011;43150;50.986;18.208;2023-06-04T07:24:21;1.80;;;1.40;;
57303;SDS011;43150;50.986;18.208;2023-06-04T07:26:47;3.40;;;1.60;;
57303;SDS011;43150;50.986;18.208;2023-06-04T07:29:13;2.40;;;1.50;;
57303;SDS011;43150;50.986;18.208;2023-06-04T07:31:40;4.00;;;1.50;;
57303;SDS011;43150;50.986;18.208;2023-06-04T07:34:06;2.40;;;1.40;;
57303;SDS011;43150;50.986;18.208;2023-06-04T07:36:32;2.90;;;1.30;;
57303;SDS011;43150;50.986;18.208;2023-06-04T07:38:58;2.10;;;1.60;;
57303;SDS011;43150;50.986;18.208;2023-06-04T07:41:24;2.30;;;1.60;;
57303;SDS011;43150;50.986;18.208;2023-06-04T07:43:51;2.70;;;1.50;;
57303;SDS011;43150;50.986;18.208;2023-06-04T07:46:17;2.40;;;1.40;;
57303;SDS011;43150;50.986;18.208;2023-06-04T07:48:44;4.00;;;1.40;;
57303;SDS011;43150;50.986;18.208;2023-06-04T07:51:10;4.80;;;1.40;;
57303;SDS011;43150;50.986;18.208;2023-06-04T07:53:37;2.30;;;1.30;;
57303;SDS011;43150;50.986;18.208;2023-06-04T07:56:05;2.50;;;1.50;;
57303;SDS011;43150;50.986;18.208;2023-06-04T07:58:31;2.20;;;1.20;;
57303;SDS011;43150;50.986;18.208;2023-06-04T08:00:56;2.70;;;1.10;;
57303;SDS011;43150;50.986;18.208;2023-06-04T08:03:22;2.90;;;1.10;;
57303;SDS011;43150;50.986;18.208;2023-06-04T08:05:48;1.50;;;1.20;;
57303;SDS011;43150;50.986;18.208;2023-06-04T08:08:14;2.30;;;1.40;;
57303;SDS011;43150;50.986;18.208;2023-06-04T08:10:40;1.30;;;1.10;;
57303;SDS011;43150;50.986;18.208;2023-06-04T08:13:06;2.60;;;1.20;;
57303;SDS011;43150;50.986;18.208;2023-06-04T08:15:32;3.10;;;1.40;;
57303;SDS011;43150;50.986;18.208;2023-06-04T08:17:57;1.50;;;1.10;;
57303;SDS011;43150;50.986;18.208;2023-06-04T08:20:23;4.30;;;1.50;;
57303;SDS011;43150;50.986;18.208;2023-06-04T08:22:49;4.30;;;1.10;;
57303;SDS011;43150;50.986;18.208;2023-06-04T08:25:14;4.50;;;1.10;;
57303;SDS011;43150;50.986;18.208;2023-06-04T08:27:41;2.60;;;1.20;;
57303;SDS011;43150;50.986;18.208;2023-06-04T08:30:12;1.80;;;1.10;;
57303;SDS011;43150;50.986;18.208;2023-06-04T08:32:37;6.10;;;1.30;;
57303;SDS011;43150;50.986;18.208;2023-06-04T08:35:03;2.10;;;1.40;;
57303;SDS011;43150;50.986;18.208;2023-06-04T08:37:32;3.10;;;1.30;;
57303;SDS011;43150;50.986;18.208;2023-06-04T08:39:57;2.30;;;1.30;;
57303;SDS011;43150;50.986;18.208;2023-06-04T08:42:34;2.90;;;1.10;;
57303;SDS011;43150;50.986;18.208;2023-06-04T08:45:03;3.40;;;1.20;;
57303;SDS011;43150;50.986;18.208;2023-06-04T08:47:29;3.60;;;1.50;;
57303;SDS011;43150;50.986;18.208;2023-06-04T08:49:55;2.50;;;1.40;;
57303;SDS011;43150;50.986;18.208;2023-06-04T08:52:24;1.60;;;0.90;;
57303;SDS011;43150;50.986;18.208;2023-06-04T08:54:51;2.90;;;1.20;;
57303;SDS011;43150;50.986;18.208;2023-06-04T08:57:18;3.90;;;1.30;;
57303;SDS011;43150;50.986;18.208;2023-06-04T08:59:47;3.00;;;1.10;;
57303;SDS011;43150;50.986;18.208;2023-06-04T09:02:13;2.50;;;1.00;;
57303;SDS011;43150;50.986;18.208;2023-06-04T09:04:41;1.60;;;1.30;;
57303;SDS011;43150;50.986;18.208;2023-06-04T09:07:07;2.90;;;1.20;;
57303;SDS011;43150;50.986;18.208;2023-06-04T09:09:36;2.00;;;1.30;;
57303;SDS011;43150;50.986;18.208;2023-06-04T09:12:02;2.00;;;1.10;;
57303;SDS011;43150;50.986;18.208;2023-06-04T09:14:30;2.40;;;0.90;;
57303;SDS011;43150;50.986;18.208;2023-06-04T09:16:55;2.20;;;1.10;;
57303;SDS011;43150;50.986;18.208;2023-06-04T09:19:24;3.00;;;1.20;;
57303;SDS011;43150;50.986;18.208;2023-06-04T09:21:50;2.70;;;1.00;;
57303;SDS011;43150;50.986;18.208;2023-06-04T09:24:17;2.60;;;1.10;;
57303;SDS011;43150;50.986;18.208;2023-06-04T09:26:43;1.40;;;1.00;;
57303;SDS011;43150;50.986;18.208;2023-06-04T09:29:09;2.10;;;1.00;;
57303;SDS011;43150;50.986;18.208;2023-06-04T09:31:34;2.20;;;1.30;;
57303;SDS011;43150;50.986;18.208;2023-06-04T09:34:04;4.80;;;1.30;;
57303;SDS011;43150;50.986;18.208;2023-06-04T09:36:31;3.30;;;1.40;;
57303;SDS011;43150;50.986;18.208;2023-06-04T09:38:57;3.80;;;1.30;;
57303;SDS011;43150;50.986;18.208;2023-06-04T09:41:23;2.20;;;1.10;;
57303;SDS011;43150;50.986;18.208;2023-06-04T09:43:49;1.70;;;0.90;;
57303;SDS011;43150;50.986;18.208;2023-06-04T09:46:16;2.00;;;1.10;;
57303;SDS011;43150;50.986;18.208;2023-06-04T09:48:42;5.00;;;1.30;;
57303;SDS011;43150;50.986;18.208;2023-06-04T09:51:08;2.10;;;1.20;;
57303;SDS011;43150;50.986;18.208;2023-06-04T09:53:33;4.50;;;1.40;;
57303;SDS011;43150;50.986;18.208;2023-06-04T09:56:01;1.70;;;1.30;;
57303;SDS011;43150;50.986;18.208;2023-06-04T09:58:28;1.80;;;1.10;;
57303;SDS011;43150;50.986;18.208;2023-06-04T10:00:55;1.20;;;0.90;;
57303;SDS011;43150;50.986;18.208;2023-06-04T10:03:24;3.60;;;1.20;;
57303;SDS011;43150;50.986;18.208;2023-06-04T10:05:53;2.40;;;1.20;;
57303;SDS011;43150;50.986;18.208;2023-06-04T10:08:19;1.20;;;1.10;;
57303;SDS011;43150;50.986;18.208;2023-06-04T10:10:46;2.50;;;1.10;;
57303;SDS011;43150;50.986;18.208;2023-06-04T10:13:17;2.40;;;0.90;;
57303;SDS011;43150;50.986;18.208;2023-06-04T10:15:43;2.40;;;0.90;;
57303;SDS011;43150;50.986;18.208;2023-06-04T10:18:09;2.40;;;1.20;;
57303;SDS011;43150;50.986;18.208;2023-06-04T10:20:35;1.80;;;1.00;;
57303;SDS011;43150;50.986;18.208;2023-06-04T10:23:01;2.10;;;1.10;;
57303;SDS011;43150;50.986;18.208;2023-06-04T10:25:27;2.00;;;1.30;;
57303;SDS011;43150;50.986;18.208;2023-06-04T10:27:54;2.30;;;1.20;;
57303;SDS011;43150;50.986;18.208;2023-06-04T10:30:20;1.80;;;1.10;;
57303;SDS011;43150;50.986;18.208;2023-06-04T10:32:46;3.40;;;1.10;;
57303;SDS011;43150;50.986;18.208;2023-06-04T10:35:12;2.90;;;1.30;;
57303;SDS011;43150;50.986;18.208;2023-06-04T10:37:40;2.90;;;1.10;;
57303;SDS011;43150;50.986;18.208;2023-06-04T10:40:06;2.10;;;1.20;;
57303;SDS011;43150;50.986;18.208;2023-06-04T10:42:39;3.10;;;1.00;;
57303;SDS011;43150;50.986;18.208;2023-06-04T10:45:04;2.20;;;1.10;;
57303;SDS011;43150;50.986;18.208;2023-06-04T10:47:31;1.60;;;1.20;;
57303;SDS011;43150;50.986;18.208;2023-06-04T10:50:11;1.50;;;1.20;;
57303;SDS011;43150;50.986;18.208;2023-06-04T10:52:38;4.10;;;1.00;;
57303;SDS011;43150;50.986;18.208;2023-06-04T10:55:07;2.90;;;1.40;;
57303;SDS011;43150;50.986;18.208;2023-06-04T10:57:34;0.80;;;0.80;;
57303;SDS011;43150;50.986;18.208;2023-06-04T11:00:00;2.10;;;1.10;;
57303;SDS011;43150;50.986;18.208;2023-06-04T11:02:26;2.60;;;1.30;;
57303;SDS011;43150;50.986;18.208;2023-06-04T11:07:26;4.80;;;1.10;;
57303;SDS011;43150;50.986;18.208;2023-06-04T11:09:52;2.60;;;1.10;;
57303;SDS011;43150;50.986;18.208;2023-06-04T11:12:19;2.20;;;1.00;;
57303;SDS011;43150;50.986;18.208;2023-06-04T11:14:57;2.20;;;1.20;;
57303;SDS011;43150;50.986;18.208;2023-06-04T11:17:23;3.20;;;1.00;;
57303;SDS011;43150;50.986;18.208;2023-06-04T11:19:49;1.80;;;1.00;;
57303;SDS011;43150;50.986;18.208;2023-06-04T11:22:15;1.80;;;1.20;;
57303;SDS011;43150;50.986;18.208;2023-06-04T11:24:40;2.20;;;1.00;;
57303;SDS011;43150;50.986;18.208;2023-06-04T11:27:06;1.60;;;1.10;;
57303;SDS011;43150;50.986;18.208;2023-06-04T11:29:32;2.10;;;1.20;;
57303;SDS011;43150;50.986;18.208;2023-06-04T11:31:58;1.80;;;1.10;;
57303;SDS011;43150;50.986;18.208;2023-06-04T11:36:49;3.90;;;1.20;;
57303;SDS011;43150;50.986;18.208;2023-06-04T11:39:15;1.60;;;0.90;;
57303;SDS011;43150;50.986;18.208;2023-06-04T11:41:40;1.70;;;0.90;;
57303;SDS011;43150;50.986;18.208;2023-06-04T11:44:06;2.40;;;1.00;;
57303;SDS011;43150;50.986;18.208;2023-06-04T11:46:32;2.80;;;1.10;;
57303;SDS011;43150;50.986;18.208;2023-06-04T11:48:59;3.70;;;1.10;;
57303;SDS011;43150;50.986;18.208;2023-06-04T11:51:25;1.80;;;1.00;;
57303;SDS011;43150;50.986;18.208;2023-06-04T11:53:51;3.40;;;1.10;;
57303;SDS011;43150;50.986;18.208;2023-06-04T11:56:18;1.40;;;1.20;;
57303;SDS011;43150;50.986;18.208;2023-06-04T11:58:44;2.70;;;0.90;;
57303;SDS011;43150;50.986;18.208;2023-06-04T12:01:11;2.20;;;0.90;;
57303;SDS011;43150;50.986;18.208;2023-06-04T12:03:39;2.70;;;1.00;;
57303;SDS011;43150;50.986;18.208;2023-06-04T12:06:15;1.90;;;1.00;;
57303;SDS011;43150;50.986;18.208;2023-06-04T12:08:50;2.00;;;1.00;;
57303;SDS011;43150;50.986;18.208;2023-06-04T12:11:29;3.20;;;1.20;;
57303;SDS011;43150;50.986;18.208;2023-06-04T12:13:57;1.70;;;1.20;;
57303;SDS011;43150;50.986;18.208;2023-06-04T12:16:23;1.50;;;1.00;;
57303;SDS011;43150;50.986;18.208;2023-06-04T12:18:49;1.70;;;1.10;;
57303;SDS011;43150;50.986;18.208;2023-06-04T12:21:21;2.40;;;1.10;;
57303;SDS011;43150;50.986;18.208;2023-06-04T12:23:47;2.00;;;1.00;;
57303;SDS011;43150;50.986;18.208;2023-06-04T12:26:25;2.10;;;1.20;;
57303;SDS011;43150;50.986;18.208;2023-06-04T12:29:00;4.00;;;1.10;;
57303;SDS011;43150;50.986;18.208;2023-06-04T12:31:26;1.10;;;1.00;;
57303;SDS011;43150;50.986;18.208;2023-06-04T12:34:00;2.20;;;1.40;;
57303;SDS011;43150;50.986;18.208;2023-06-04T12:36:26;3.30;;;1.50;;
57303;SDS011;43150;50.986;18.208;2023-06-04T12:38:55;1.20;;;1.10;;
57303;SDS011;43150;50.986;18.208;2023-06-04T12:41:21;1.10;;;1.00;;
57303;SDS011;43150;50.986;18.208;2023-06-04T12:43:46;2.50;;;1.00;;
57303;SDS011;43150;50.986;18.208;2023-06-04T12:46:12;2.50;;;1.00;;
57303;SDS011;43150;50.986;18.208;2023-06-04T12:48:38;1.60;;;1.10;;
57303;SDS011;43150;50.986;18.208;2023-06-04T12:51:03;2.50;;;1.20;;
57303;SDS011;43150;50.986;18.208;2023-06-04T12:53:29;2.70;;;1.10;;
57303;SDS011;43150;50.986;18.208;2023-06-04T12:55:55;4.40;;;1.30;;
57303;SDS011;43150;50.986;18.208;2023-06-04T12:58:20;0.90;;;0.90;;
57303;SDS011;43150;50.986;18.208;2023-06-04T13:00:46;1.60;;;1.10;;
57303;SDS011;43150;50.986;18.208;2023-06-04T13:03:12;1.70;;;1.10;;
57303;SDS011;43150;50.986;18.208;2023-06-04T13:05:38;1.60;;;1.20;;
57303;SDS011;43150;50.986;18.208;2023-06-04T13:08:03;2.90;;;1.20;;
57303;SDS011;43150;50.986;18.208;2023-06-04T13:10:29;1.60;;;1.10;;
57303;SDS011;43150;50.986;18.208;2023-06-04T13:12:54;1.40;;;1.10;;
57303;SDS011;43150;50.986;18.208;2023-06-04T13:15:20;2.60;;;1.20;;
57303;SDS011;43150;50.986;18.208;2023-06-04T13:17:45;1.50;;;1.20;;
57303;SDS011;43150;50.986;18.208;2023-06-04T13:20:12;2.10;;;1.20;;
57303;SDS011;43150;50.986;18.208;2023-06-04T13:22:37;4.90;;;1.30;;
57303;SDS011;43150;50.986;18.208;2023-06-04T13:25:04;2.60;;;1.30;;
57303;SDS011;43150;50.986;18.208;2023-06-04T13:27:29;1.70;;;0.90;;
57303;SDS011;43150;50.986;18.208;2023-06-04T13:29:55;1.70;;;1.00;;
57303;SDS011;43150;50.986;18.208;2023-06-04T13:32:21;1.50;;;1.00;;
57303;SDS011;43150;50.986;18.208;2023-06-04T13:34:46;3.00;;;1.10;;
57303;SDS011;43150;50.986;18.208;2023-06-04T13:37:13;2.30;;;1.10;;
57303;SDS011;43150;50.986;18.208;2023-06-04T13:39:40;3.30;;;1.10;;
57303;SDS011;43150;50.986;18.208;2023-06-04T13:42:05;2.90;;;1.40;;
57303;SDS011;43150;50.986;18.208;2023-06-04T13:44:31;2.30;;;1.10;;
57303;SDS011;43150;50.986;18.208;2023-06-04T13:46:58;3.20;;;1.30;;
57303;SDS011;43150;50.986;18.208;2023-06-04T13:49:24;2.70;;;1.30;;
57303;SDS011;43150;50.986;18.208;2023-06-04T13:51:50;1.50;;;1.00;;
57303;SDS011;43150;50.986;18.208;2023-06-04T13:54:15;1.40;;;1.10;;
57303;SDS011;43150;50.986;18.208;2023-06-04T13:56:41;1.60;;;1.10;;
57303;SDS011;43150;50.986;18.208;2023-06-04T13:59:06;1.90;;;1.20;;
57303;SDS011;43150;50.986;18.208;2023-06-04T14:01:32;3.50;;;1.00;;
57303;SDS011;43150;50.986;18.208;2023-06-04T14:03:57;2.50;;;1.10;;
57303;SDS011;43150;50.986;18.208;2023-06-04T14:06:24;1.20;;;1.00;;
57303;SDS011;43150;50.986;18.208;2023-06-04T14:08:50;2.70;;;1.10;;
57303;SDS011;43150;50.986;18.208;2023-06-04T14:11:15;4.30;;;1.20;;
57303;SDS011;43150;50.986;18.208;2023-06-04T14:13:41;1.30;;;1.10;;
57303;SDS011;43150;50.986;18.208;2023-06-04T14:16:10;1.40;;;1.00;;
57303;SDS011;43150;50.986;18.208;2023-06-04T14:18:36;2.60;;;1.20;;
57303;SDS011;43150;50.986;18.208;2023-06-04T14:21:01;2.50;;;1.20;;
57303;SDS011;43150;50.986;18.208;2023-06-04T14:23:27;2.30;;;1.60;;
57303;SDS011;43150;50.986;18.208;2023-06-04T14:25:52;2.40;;;1.00;;
57303;SDS011;43150;50.986;18.208;2023-06-04T14:28:18;1.30;;;1.20;;
57303;SDS011;43150;50.986;18.208;2023-06-04T14:30:49;2.10;;;1.10;;
57303;SDS011;43150;50.986;18.208;2023-06-04T14:33:18;1.70;;;1.20;;
57303;SDS011;43150;50.986;18.208;2023-06-04T14:35:44;1.40;;;1.10;;
57303;SDS011;43150;50.986;18.208;2023-06-04T14:38:12;1.20;;;1.10;;
57303;SDS011;43150;50.986;18.208;2023-06-04T14:40:39;1.80;;;1.10;;
57303;SDS011;43150;50.986;18.208;2023-06-04T14:43:07;1.30;;;1.20;;